Terminal Aerodrome Forecast
Issued by NWS Tulsa, OK

Home | Current Version | Previous Version | Text Only | Print | Product List | Glossary On
Versions: 1 2 3 4 5 6 7 8 9 10 11 12 13 14 15 16 17
000
FTUS44 KTSA 291000 AAA
TAFTUL
TAF AMD
KTUL 291000Z 2910/3006 05012G20KT P6SM SCT015 BKN035
      TEMPO 2910/2914 2SM TSRA BR BKN010CB=

USA.gov is the U.S. government's official web portal to all federal, state and local government web resources and services.